map of EAN home
EAN - Airport
Location
City:  Wheatland, Wyoming, United States
Name:Phifer Airfield
ICAO:KEAN
IATA:EAN
FAA LID:EAN

Details
Type:Airport (Airfield)
Use:Public/Civil
Latitude:4203'20"N (42.055528)
Longitude:10455'43"W (-104.928610)
Datum:WGS 1984
Elevation:4776 ft (1456 m)
Variation:8.38E (WMM2015 magnetic declination)
-0.11 annual change
Runways:1
Longest:5900 × 75 ft (1798 × 23 m), paved

Weather
METAR:KEAN 121335Z AUTO 24013G18KT 10SM CLR 08/M13 A3030 RMK AO2

Related Locations
Nearby:
Farthest:RRG: 10750 mi / 17300 km
Plaine Corail [Sir Gatan Duval Airport (Plaine Corail Airport)], Rodrigues Island, MU

Find:

   beyond  
but within

Other Information
Maps:
NOTAMs:
Links:
Sources:

  
flag of United States
flag of Wyoming
  

Sectional Chart

Flight Planning
at skyvector.com

Satellite Image

Google Maps Satellite view

 

Copyright © 2004-2017 Karl L. Swartz. All rights reserved.
The Great Circle Mapper name and logo are trademarks of the Great Circle Mapper.
All other trademarks mentioned herein belong to their respective owners.
Please see credits for attibutions and further copyright information.

  Follow gcmap on Facebook Follow gcmap on Twitter Follow gcmap on Google+ GCmap on LinkedIn

hCard Microformat

Geo Microformat